Terminal Aerodrome Forecast
Issued by NWS

Home | Current Version | Previous Version | Text Only | Print | Product List | Glossary On
Versions: 1 2 3 4 5 6 7 8 9 10 11 12 13 14 15 16
421
FTUS42 KTBW 281009 AAB
TAFPGD
TAF AMD
KPGD 281009Z 2810/0106 05004KT 3SM BR FEW010
      TEMPO 2810/2813 1/4SM FG OVC003
     FM281400 15010KT P6SM SCT035
     FM282100 19007KT P6SM SCT040
     FM010100 VRB03KT P6SM FEW020=

USA.gov is the U.S. government's official web portal to all federal, state and local government web resources and services.